Time;durP1;ratioP1;P1;durP2;ratioP2;P2;SDS_P1;SDS_P2;PMS_P1;PMS_P2;Temp;Humidity;BMP_temperature;BMP_pressure;BME280_temperature;BME280_humidity;BME280_pressure;Samples;Min_cycle;Max_cycle;Signal;HPM_P1;HPM_P2
2022/04/05 04:22:36;;;;;;;21.58;10.75;;;;;;;5.22;82.56;99745.19;5129707;27;20525;-74
2022/04/05 04:25:03;;;;;;;24.40;12.02;;;;;;;5.26;81.17;99742.09;5097391;28;20122;-75
2022/04/05 04:27:30;;;;;;;25.50;10.90;;;;;;;5.29;81.22;99746.25;5111411;28;20046;-76
2022/04/05 04:29:56;;;;;;;25.30;9.88;;;;;;;5.36;79.84;99748.13;5129817;28;20031;-76
2022/04/05 04:32:21;;;;;;;22.83;9.65;;;;;;;5.42;78.60;99717.63;5128662;28;20031;-75
2022/04/05 04:34:47;;;;;;;20.52;10.27;;;;;;;5.43;78.89;99732.50;5128238;28;20039;-76
2022/04/05 04:37:13;;;;;;;15.85;9.27;;;;;;;5.47;78.68;99739.13;5129861;27;20081;-74
2022/04/05 04:39:39;;;;;;;21.10;10.65;;;;;;;5.52;78.42;99752.72;5111371;28;20031;-75
2022/04/05 04:42:05;;;;;;;19.77;10.35;;;;;;;5.47;78.45;99751.50;5129137;28;20541;-73
2022/04/05 04:44:30;;;;;;;18.08;10.00;;;;;;;5.47;77.37;99757.63;5129513;27;20066;-75
2022/04/05 04:46:56;;;;;;;16.25;9.48;;;;;;;5.59;77.37;99748.47;5111138;28;20043;-74
2022/04/05 04:49:22;;;;;;;18.65;10.05;;;;;;;5.54;77.00;99756.06;5129397;28;20036;-75
2022/04/05 04:51:48;;;;;;;21.60;11.07;;;;;;;5.55;77.02;99760.34;5129070;27;20043;-74
2022/04/05 04:54:13;;;;;;;18.98;10.55;;;;;;;5.55;76.85;99747.13;5128097;28;20031;-78
2022/04/05 04:56:39;;;;;;;19.38;10.10;;;;;;;5.55;76.54;99757.72;5127737;28;20035;-76
2022/04/05 04:59:05;;;;;;;19.55;10.00;;;;;;;5.59;77.70;99759.03;5128959;28;20411;-76
2022/04/05 05:01:30;;;;;;;18.75;9.65;;;;;;;5.58;77.62;99762.66;5127752;28;20031;-74
2022/04/05 05:03:56;;;;;;;17.10;9.43;;;;;;;5.59;76.85;99766.13;5128021;28;20046;-74
2022/04/05 05:06:21;;;;;;;17.65;10.43;;;;;;;5.61;76.97;99764.19;5129113;28;20375;-74
2022/04/05 05:08:47;;;;;;;17.77;9.90;;;;;;;5.45;78.42;99764.88;5128925;28;20034;-76
2022/04/05 05:11:13;;;;;;;20.33;10.93;;;;;;;5.50;77.99;99777.63;5128708;28;20135;-75
2022/04/05 05:13:39;;;;;;;17.23;9.93;;;;;;;5.49;78.29;99779.44;5128493;27;20396;-74
2022/04/05 05:16:05;;;;;;;16.67;9.90;;;;;;;5.53;77.74;99785.25;5110506;28;20047;-74
2022/04/05 05:18:30;;;;;;;20.95;10.40;;;;;;;5.47;77.75;99770.00;5128927;28;20035;-76
2022/04/05 05:20:56;;;;;;;18.48;9.95;;;;;;;5.50;77.55;99778.47;5127350;28;20036;-75
2022/04/05 05:23:22;;;;;;;19.85;9.85;;;;;;;5.48;77.84;99777.78;5128455;27;20488;-75
2022/04/05 05:25:48;;;;;;;19.40;10.20;;;;;;;5.52;78.21;99778.31;5128650;28;20483;-76
2022/04/05 05:28:14;;;;;;;21.30;9.90;;;;;;;5.49;78.52;99779.44;5110235;28;20047;-75
2022/04/05 05:30:40;;;;;;;19.65;10.00;;;;;;;5.48;79.85;99792.78;5128626;28;20180;-76
2022/04/05 05:33:06;;;;;;;20.30;10.65;;;;;;;5.45;79.37;99778.91;5119396;28;20027;-75
2022/04/05 05:35:33;;;;;;;17.55;9.27;;;;;;;5.41;80.38;99787.28;5113361;28;20107;-75
2022/04/05 05:37:59;;;;;;;17.92;10.05;;;;;;;5.48;79.46;99784.84;5113736;28;20408;-75
2022/04/05 05:40:25;;;;;;;20.02;10.85;;;;;;;5.42;80.28;99786.31;5113871;28;20127;-76
2022/04/05 05:42:53;;;;;;;17.88;10.05;;;;;;;5.47;81.28;99793.78;5114366;28;20040;-75
2022/04/05 05:45:20;;;;;;;19.33;10.23;;;;;;;5.44;79.78;99782.53;5114983;28;20100;-77
2022/04/05 05:47:46;;;;;;;21.50;10.60;;;;;;;5.54;79.03;99790.41;5096644;28;20444;-75
2022/04/05 05:50:13;;;;;;;19.20;10.15;;;;;;;5.46;81.07;99790.31;5113417;28;20074;-76
2022/04/05 05:52:41;;;;;;;20.63;10.68;;;;;;;5.42;79.83;99783.69;5112905;28;20040;-73
2022/04/05 05:55:07;;;;;;;;;;;;;;;5.51;79.73;99787.22;5114816;28;20039;-73
2022/04/05 05:57:34;;;;;;;15.63;9.50;;;;;;;5.45;80.38;99780.72;5114216;28;20420;-73
2022/04/05 05:59:59;;;;;;;19.38;11.30;;;;;;;5.49;80.24;99787.38;5114328;28;20062;-73
2022/04/05 06:02:25;;;;;;;16.42;10.38;;;;;;;5.53;80.24;99779.97;5113981;28;20035;-73
2022/04/05 06:04:50;;;;;;;19.75;11.07;;;;;;;5.62;80.47;99776.41;5112972;28;20035;-73
2022/04/05 06:07:16;;;;;;;19.38;10.38;;;;;;;5.59;79.67;99789.91;5114005;27;20039;-71
2022/04/05 06:09:42;;;;;;;18.92;10.07;;;;;;;5.56;80.22;99804.28;5095731;28;20032;-71
2022/04/05 06:12:08;;;;;;;17.50;9.57;;;;;;;5.52;79.79;99807.38;5113864;27;20039;-72
2022/04/05 06:14:33;;;;;;;25.63;11.30;;;;;;;5.55;79.86;99809.72;5114053;28;20038;-72
2022/04/05 06:16:59;;;;;;;17.60;10.23;;;;;;;5.60;79.59;99823.28;5114041;28;20084;-70
2022/04/05 06:19:24;;;;;;;18.40;10.30;;;;;;;5.55;79.87;99799.97;5108162;27;20031;-73
2022/04/05 06:21:50;;;;;;;21.25;10.20;;;;;;;5.59;79.74;99809.25;5094896;28;20065;-73
2022/04/05 06:24:16;;;;;;;18.13;10.15;;;;;;;5.59;79.51;99817.16;5113623;28;20043;-70
2022/04/05 06:26:42;;;;;;;19.35;9.77;;;;;;;5.67;78.94;99808.47;5113464;28;20031;-70
2022/04/05 06:29:08;;;;;;;18.75;9.95;;;;;;;5.60;79.25;99813.53;5113585;28;20046;-72
2022/04/05 06:31:33;;;;;;;18.38;10.68;;;;;;;5.63;80.06;99837.03;5111961;28;20040;-72
2022/04/05 06:34:02;;;;;;;19.92;10.10;;;;;;;5.69;78.59;99810.00;5112101;28;20089;-70
2022/04/05 06:36:29;;;;;;;22.15;10.73;;;;;;;5.68;79.63;99815.44;5113382;28;20050;-71
2022/04/05 06:38:55;;;;;;;19.67;10.57;;;;;;;5.73;79.88;99831.66;5113467;28;20408;-71
2022/04/05 06:41:21;;;;;;;19.55;11.23;;;;;;;5.72;78.79;99828.19;5113561;28;20028;-72
2022/04/05 06:43:47;;;;;;;20.30;9.95;;;;;;;5.76;78.17;99819.97;5111986;28;20028;-72
2022/04/05 06:46:15;;;;;;;23.73;10.90;;;;;;;5.73;77.78;99813.97;5111470;28;20131;-72
2022/04/05 06:48:41;;;;;;;;;;;;;;;5.72;78.90;99809.69;5113672;28;20035;-72
2022/04/05 06:51:06;;;;;;;20.30;10.40;;;;;;;5.79;78.52;99803.78;5111879;28;20394;-71
2022/04/05 06:53:32;;;;;;;18.65;10.05;;;;;;;5.87;77.71;99810.00;5111108;28;20059;-71
2022/04/05 06:55:59;;;;;;;21.27;10.25;;;;;;;5.86;77.30;99797.72;5113490;28;20500;-72
2022/04/05 06:58:25;;;;;;;19.73;10.13;;;;;;;5.93;76.71;99788.25;5095020;28;20039;-72
2022/04/05 07:00:51;;;;;;;19.35;10.50;;;;;;;5.97;76.94;99784.31;5113212;28;20028;-71
2022/04/05 07:03:16;;;;;;;19.10;10.60;;;;;;;5.97;75.98;99797.53;5111065;28;20032;-72
2022/04/05 07:05:42;;;;;;;17.38;9.43;;;;;;;6.06;76.36;99802.88;5113129;28;20040;-72
2022/04/05 07:08:10;;;;;;;24.90;9.65;;;;;;;6.12;75.12;99797.78;5112593;28;20063;-72
2022/04/05 07:10:36;;;;;;;20.80;11.50;;;;;;;6.12;75.48;99804.88;5112836;28;20031;-73
2022/04/05 07:13:01;;;;;;;14.48;9.27;;;;;;;6.22;74.06;99792.41;5110710;28;20028;-73
2022/04/05 07:15:28;;;;;;;17.20;9.88;;;;;;;6.29;74.10;99798.72;5111583;28;20511;-73
2022/04/05 07:17:54;;;;;;;23.50;10.90;;;;;;;6.24;74.39;99808.94;5112766;28;20036;-72
2022/04/05 07:20:19;;;;;;;16.33;9.93;;;;;;;6.32;73.36;99810.78;5112528;28;20035;-74
2022/04/05 07:22:48;;;;;;;18.08;9.35;;;;;;;6.29;73.63;99813.78;5110240;28;20035;-73
2022/04/05 07:25:15;;;;;;;17.23;9.75;;;;;;;6.33;73.45;99808.03;5094420;28;20370;-73
2022/04/05 07:27:41;;;;;;;18.92;10.32;;;;;;;6.38;73.74;99818.13;5112471;28;20066;-73
2022/04/05 07:30:07;;;;;;;17.02;9.30;;;;;;;6.39;75.03;99814.47;5112371;28;20062;-73
2022/04/05 07:32:41;;;;;;;19.45;9.52;;;;;;;6.29;75.70;99816.41;5111807;28;20446;-73
2022/04/05 07:35:07;;;;;;;18.60;10.05;;;;;;;6.33;76.13;99813.31;5112342;28;20039;-75
2022/04/05 07:37:33;;;;;;;19.75;9.45;;;;;;;6.23;75.94;99802.00;5110538;28;20476;-73
2022/04/05 07:39:59;;;;;;;21.50;10.05;;;;;;;6.27;76.46;99818.41;5094239;28;20054;-73
2022/04/05 07:42:26;;;;;;;18.25;10.02;;;;;;;6.29;76.97;99821.72;5110005;28;20044;-73
2022/04/05 07:44:52;;;;;;;24.02;10.38;;;;;;;6.30;76.66;99815.44;5112158;28;20035;-72
2022/04/05 07:47:18;;;;;;;17.38;9.10;;;;;;;6.41;76.95;99813.34;5110936;28;20038;-72
2022/04/05 07:49:44;;;;;;;20.10;9.90;;;;;;;6.39;76.47;99804.75;5111129;28;20357;-71
2022/04/05 07:52:11;;;;;;;17.33;10.35;;;;;;;6.39;76.05;99806.53;5111383;28;20039;-72
2022/04/05 07:54:37;;;;;;;17.95;10.45;;;;;;;6.41;75.80;99823.09;5111949;28;20031;-72
2022/04/05 07:57:03;;;;;;;17.75;9.57;;;;;;;6.45;75.52;99816.50;5093918;28;20408;-72
2022/04/05 07:59:29;;;;;;;18.65;10.77;;;;;;;6.50;75.45;99822.16;5111931;28;20062;-72
2022/04/05 08:01:55;;;;;;;17.55;9.18;;;;;;;6.51;75.14;99807.94;5111475;28;20039;-71
2022/04/05 08:04:21;;;;;;;17.88;9.63;;;;;;;6.53;74.37;99813.91;5112684;28;20046;-72
2022/04/05 08:06:46;;;;;;;20.05;10.27;;;;;;;6.53;73.99;99806.81;5112195;28;20061;-71
2022/04/05 08:09:12;;;;;;;19.80;9.70;;;;;;;6.65;73.90;99799.44;5110901;28;20034;-72
2022/04/05 08:11:37;;;;;;;17.83;9.93;;;;;;;6.72;74.00;99811.03;5110669;28;20487;-71
2022/04/05 08:14:03;;;;;;;17.08;8.65;;;;;;;6.62;72.87;99812.13;5111757;28;20116;-71
2022/04/05 08:16:29;;;;;;;18.77;9.63;;;;;;;6.71;72.85;99822.59;5111892;28;20035;-71
2022/04/05 08:18:55;;;;;;;20.05;9.23;;;;;;;6.78;72.86;99828.94;5110495;28;20055;-71
2022/04/05 08:21:20;;;;;;;20.33;10.30;;;;;;;6.75;72.18;99825.75;5111507;28;20092;-71
2022/04/05 08:23:50;;;;;;;26.08;11.35;;;;;;;6.74;72.98;99832.03;5111204;28;20107;-71
2022/04/05 08:26:16;;;;;;;19.15;10.05;;;;;;;6.74;72.33;99824.09;5111691;28;20040;-72
2022/04/05 08:28:42;;;;;;;18.10;9.57;;;;;;;6.69;72.48;99827.22;5111489;28;20031;-71
2022/04/05 08:31:08;;;;;;;22.20;10.55;;;;;;;6.77;71.83;99837.00;5110369;28;20063;-72
2022/04/05 08:33:34;;;;;;;18.38;9.35;;;;;;;6.72;72.70;99826.91;5109820;28;20514;-71
2022/04/05 08:36:00;;;;;;;17.58;9.73;;;;;;;6.75;72.37;99831.88;5111845;28;20032;-71
2022/04/05 08:38:28;;;;;;;20.73;9.85;;;;;;;6.72;72.38;99832.22;5104289;28;20450;-71
2022/04/05 08:40:58;;;;;;;18.25;10.07;;;;;;;6.83;72.52;99823.13;5092065;28;20115;-70
2022/04/05 08:43:29;;;;;;;16.67;9.43;;;;;;;6.81;71.95;99833.06;5090279;28;20032;-71
2022/04/05 08:45:59;;;;;;;18.55;9.93;;;;;;;6.90;72.57;99823.31;5091683;28;20420;-71
2022/04/05 08:48:27;;;;;;;18.63;9.40;;;;;;;6.99;71.41;99838.28;5101544;28;20047;-71
2022/04/05 08:50:55;;;;;;;19.35;10.30;;;;;;;6.97;70.60;99834.94;5090539;28;20056;-70
2022/04/05 08:53:20;;;;;;;19.58;9.63;;;;;;;7.01;70.91;99846.88;5091119;28;20038;-71
2022/04/05 08:55:46;;;;;;;22.48;9.52;;;;;;;7.01;70.81;99831.81;5090345;28;20110;-71
2022/04/05 08:58:16;;;;;;;17.10;9.30;;;;;;;7.00;70.92;99826.69;5091672;28;20032;-71
2022/04/05 09:00:42;;;;;;;17.58;9.18;;;;;;;7.10;69.89;99839.78;5091524;28;20512;-71
2022/04/05 09:03:08;;;;;;;19.10;9.85;;;;;;;7.06;70.34;99831.34;5090128;28;20036;-71
2022/04/05 09:05:37;;;;;;;17.25;9.35;;;;;;;7.18;70.34;99840.66;5091776;28;20035;-71
2022/04/05 09:08:19;;;;;;;16.83;8.98;;;;;;;7.15;70.36;99842.78;5093301;28;20032;-73
2022/04/05 09:10:53;;;;;;;14.85;7.78;;;;;;;7.20;69.58;99845.78;5094183;28;20062;-72
2022/04/05 09:13:27;;;;;;;15.68;9.02;;;;;;;7.26;69.63;99829.25;5095162;28;20067;-71
2022/04/05 09:15:57;;;;;;;18.33;9.20;;;;;;;7.29;69.51;99844.81;5094209;28;20039;-73
2022/04/05 09:18:37;;;;;;;15.32;8.90;;;;;;;7.33;70.60;99846.16;5093949;28;20032;-72
2022/04/05 09:21:08;;;;;;;16.70;9.60;;;;;;;7.37;69.95;99841.34;5093762;28;20116;-72
2022/04/05 09:23:38;;;;;;;18.08;9.30;;;;;;;7.44;69.23;99848.50;5094873;28;20054;-72
2022/04/05 09:26:06;;;;;;;18.40;9.38;;;;;;;7.37;69.17;99841.34;5095433;28;20092;-72
2022/04/05 09:28:52;;;;;;;18.52;8.77;;;;;;;7.41;69.64;99851.47;5093892;28;20035;-73
2022/04/05 09:31:20;;;;;;;21.95;10.10;;;;;;;7.41;70.61;99848.00;5092846;28;20067;-73
2022/04/05 09:34:08;;;;;;;18.20;9.50;;;;;;;7.47;70.45;99852.63;5094391;28;20480;-73
2022/04/05 09:36:39;;;;;;;18.95;9.60;;;;;;;7.52;70.24;99845.03;5094519;28;20032;-73
2022/04/05 09:39:15;;;;;;;18.77;10.02;;;;;;;7.46;69.88;99859.75;5106500;27;20066;-73
2022/04/05 09:41:41;;;;;;;15.45;8.85;;;;;;;7.42;70.74;99852.28;5119329;27;20410;-73
2022/04/05 09:44:07;;;;;;;21.17;9.13;;;;;;;7.45;70.07;99862.59;5124401;27;20023;-73
2022/04/05 09:46:35;;;;;;;14.75;9.07;;;;;;;7.60;69.19;99853.00;5126031;27;20085;-73
2022/04/05 09:49:08;;;;;;;18.27;9.02;;;;;;;7.56;69.88;99849.00;5124753;27;20392;-73
2022/04/05 09:51:42;;;;;;;19.48;8.85;;;;;;;7.69;68.55;99856.47;5113128;27;20027;-72
2022/04/05 09:54:13;;;;;;;20.98;9.38;;;;;;;7.69;68.76;99848.53;5119288;27;20106;-73
2022/04/05 09:56:39;;;;;;;15.90;8.25;;;;;;;7.67;69.69;99843.38;5121618;27;20412;-73
2022/04/05 09:59:19;;;;;;;15.82;8.40;;;;;;;7.72;69.13;99856.16;5124391;27;20038;-73
2022/04/05 10:01:46;;;;;;;19.13;8.88;;;;;;;7.76;69.34;99847.72;5123284;27;20033;-74
2022/04/05 10:04:15;;;;;;;15.45;8.60;;;;;;;7.86;68.31;99847.56;5127185;27;20081;-73
2022/04/05 10:06:44;;;;;;;17.08;8.65;;;;;;;7.87;67.86;99844.72;5107653;27;20034;-73
2022/04/05 10:09:11;;;;;;;17.95;8.88;;;;;;;7.96;67.12;99858.00;5118911;27;20564;-73
2022/04/05 10:11:39;;;;;;;18.27;8.32;;;;;;;8.05;66.97;99855.19;5120689;27;20041;-73
2022/04/05 10:14:05;;;;;;;17.27;9.77;;;;;;;8.00;67.08;99856.66;5119028;27;20041;-74
2022/04/05 10:16:34;;;;;;;16.20;9.98;;;;;;;8.18;67.27;99856.50;5125331;27;20036;-73
2022/04/05 10:19:04;;;;;;;17.98;8.00;;;;;;;8.22;67.23;99858.66;5114285;27;20080;-73
2022/04/05 10:21:34;;;;;;;21.27;9.88;;;;;;;8.28;67.09;99871.25;5112475;28;20051;-74
2022/04/05 10:24:00;;;;;;;16.85;8.80;;;;;;;8.23;66.38;99857.66;5095557;28;20027;-73
2022/04/05 10:26:33;;;;;;;20.15;9.15;;;;;;;8.33;67.75;99858.28;5112592;28;20066;-73
2022/04/05 10:29:06;;;;;;;16.85;8.98;;;;;;;8.39;67.60;99860.31;5113770;28;20039;-73
2022/04/05 10:31:55;;;;;;;18.00;8.77;;;;;;;8.43;66.04;99847.53;5113676;28;20045;-73
2022/04/05 10:34:28;;;;;;;18.50;9.40;;;;;;;8.43;67.10;99851.03;5125746;22;20060;-73
2022/04/05 10:37:21;;;;;;;19.63;9.35;;;;;;;8.40;66.83;99861.13;5031987;28;20037;-72
2022/04/05 10:39:55;;;;;;;13.95;9.15;;;;;;;8.40;66.21;99858.47;5032988;28;20041;-73
2022/04/05 10:42:24;;;;;;;14.82;8.75;;;;;;;8.50;66.49;99855.66;5052754;28;20029;-71
2022/04/05 10:44:52;;;;;;;15.38;9.13;;;;;;;8.57;67.33;99857.47;5052099;28;20017;-72
2022/04/05 10:47:18;;;;;;;14.25;8.32;;;;;;;8.50;66.55;99851.19;5051997;28;20750;-72
2022/04/05 10:49:50;;;;;;;16.83;8.27;;;;;;;8.53;66.22;99856.13;5052799;28;20116;-72
2022/04/05 10:52:31;;;;;;;16.13;8.68;;;;;;;8.57;66.45;99846.84;5052990;28;20045;-70
2022/04/05 10:55:11;;;;;;;17.48;9.07;;;;;;;8.68;66.88;99846.50;5051950;28;20088;-72
2022/04/05 10:57:38;;;;;;;14.10;8.02;;;;;;;8.70;66.10;99859.59;5052683;28;20063;-71
2022/04/05 11:00:10;;;;;;;18.17;9.15;;;;;;;8.74;66.29;99850.28;5053687;28;20061;-72
2022/04/05 11:03:00;;;;;;;14.85;8.68;;;;;;;8.71;67.90;99845.31;5052710;28;20036;-71
2022/04/05 11:05:35;;;;;;;19.35;9.65;;;;;;;8.72;67.04;99854.94;5052454;28;20043;-71
2022/04/05 11:08:03;;;;;;;14.40;8.00;;;;;;;8.57;66.77;99838.06;5033180;28;20044;-71
2022/04/05 11:10:46;;;;;;;15.27;8.82;;;;;;;8.76;67.00;99831.53;5032441;28;20042;-72
2022/04/05 11:13:17;;;;;;;18.40;8.38;;;;;;;8.84;65.94;99842.94;5032612;28;20406;-71
2022/04/05 11:15:46;;;;;;;14.40;8.27;;;;;;;8.89;64.96;99856.53;5032691;28;20045;-70
2022/04/05 11:18:17;;;;;;;13.82;8.45;;;;;;;9.00;65.64;99836.75;5032788;28;20477;-70
2022/04/05 11:20:45;;;;;;;14.02;7.95;;;;;;;9.12;65.91;99842.47;5032974;28;20029;-72
2022/04/05 11:23:13;;;;;;;16.45;8.63;;;;;;;9.16;65.90;99826.03;5032821;28;20474;-71
2022/04/05 11:25:38;;;;;;;16.02;8.43;;;;;;;9.22;66.76;99827.16;5031742;28;20037;-73
2022/04/05 11:28:12;;;;;;;15.88;9.38;;;;;;;9.22;67.38;99830.66;5032323;28;20037;-71
2022/04/05 11:30:44;;;;;;;16.45;8.77;;;;;;;9.22;66.79;99825.34;5031603;28;20371;-72
2022/04/05 11:33:09;;;;;;;18.10;9.35;;;;;;;9.26;65.77;99820.50;5031862;28;20517;-71
2022/04/05 11:35:40;;;;;;;17.30;8.90;;;;;;;9.46;67.10;99821.72;5032050;28;20048;-71
2022/04/05 11:38:28;;;;;;;15.98;8.60;;;;;;;9.59;66.51;99822.97;5032341;28;20037;-71
2022/04/05 11:40:58;;;;;;;;;;;;;;;9.73;66.80;99822.19;5032636;28;20078;-71
2022/04/05 11:43:35;;;;;;;17.45;8.40;;;;;;;9.61;66.36;99823.59;5031874;28;19928;-71
2022/04/05 11:46:09;;;;;;;17.50;9.63;;;;;;;9.70;66.47;99825.19;5032014;28;20033;-71
2022/04/05 11:48:43;;;;;;;19.00;10.85;;;;;;;9.65;67.41;99830.19;5031982;28;20084;-71
2022/04/05 11:51:10;;;;;;;17.75;8.85;;;;;;;9.64;67.82;99826.72;5031862;28;20493;-71
2022/04/05 11:53:37;;;;;;;21.52;9.75;;;;;;;9.45;66.80;99820.06;5031583;28;20026;-71
2022/04/05 11:56:17;;;;;;;16.95;8.73;;;;;;;9.64;66.35;99818.75;5031822;28;20677;-71
2022/04/05 11:58:46;;;;;;;20.52;8.63;;;;;;;9.77;65.98;99826.13;5031886;28;20029;-71
2022/04/05 12:01:14;;;;;;;17.33;9.15;;;;;;;9.79;65.38;99829.47;5030581;28;20482;-71
2022/04/05 12:04:22;;;;;;;18.85;9.75;;;;;;;9.73;65.89;99812.38;5031670;28;20041;-71
2022/04/05 12:06:53;;;;;;;13.20;7.80;;;;;;;9.82;64.95;99814.97;5031903;28;20044;-72
2022/04/05 12:09:21;;;;;;;18.15;8.95;;;;;;;9.81;65.26;99835.41;5031804;28;20121;-71
2022/04/05 12:11:51;;;;;;;16.15;8.70;;;;;;;9.85;65.42;99823.44;5013654;28;20037;-71
2022/04/05 12:14:22;;;;;;;17.90;8.90;;;;;;;9.85;65.74;99834.06;5031950;28;20046;-72
2022/04/05 12:16:54;;;;;;;15.88;9.07;;;;;;;9.94;66.21;99835.63;5032614;28;20091;-73
2022/04/05 12:19:23;;;;;;;16.85;9.20;;;;;;;9.98;66.62;99831.63;5030725;28;20039;-72
2022/04/05 12:21:57;;;;;;;17.60;8.68;;;;;;;9.99;66.64;99827.97;5031669;28;20022;-73
2022/04/05 12:24:23;;;;;;;17.35;9.20;;;;;;;10.01;66.90;99833.91;5030201;28;20059;-72
2022/04/05 12:26:49;;;;;;;18.10;8.30;;;;;;;9.97;65.72;99826.47;5030583;28;20073;-72
2022/04/05 12:29:15;;;;;;;15.82;8.85;;;;;;;9.88;65.74;99827.53;5030719;28;20042;-72
2022/04/05 12:31:41;;;;;;;16.05;8.73;;;;;;;10.00;66.22;99831.44;5032283;28;20033;-74
2022/04/05 12:34:11;;;;;;;20.23;8.60;;;;;;;9.82;65.55;99823.75;5030107;28;20037;-72
2022/04/05 12:36:44;;;;;;;14.57;9.35;;;;;;;9.82;65.66;99826.44;5031548;28;20037;-72
2022/04/05 12:39:18;;;;;;;16.15;8.85;;;;;;;9.64;65.83;99829.38;5031263;28;20083;-72
2022/04/05 12:41:46;;;;;;;14.80;8.65;;;;;;;9.72;65.77;99832.00;5031032;28;20572;-72
2022/04/05 12:44:21;;;;;;;18.60;8.85;;;;;;;9.68;65.75;99816.56;5034976;28;20041;-73
2022/04/05 12:46:51;;;;;;;14.95;7.68;;;;;;;9.74;67.34;99821.19;5017843;28;20405;-72
2022/04/05 12:49:44;;;;;;;15.73;8.27;;;;;;;9.71;67.40;99805.56;5035890;28;20047;-73
2022/04/05 12:52:17;;;;;;;18.20;9.13;;;;;;;9.71;67.24;99814.34;5031753;28;20617;-72
2022/04/05 12:54:49;;;;;;;19.52;9.63;;;;;;;9.88;66.95;99807.09;5035296;28;20037;-72
2022/04/05 12:57:15;;;;;;;15.02;8.52;;;;;;;10.07;66.53;99814.56;5033966;28;20506;-73
2022/04/05 12:59:41;;;;;;;17.50;8.88;;;;;;;10.19;65.61;99812.31;5035169;28;20068;-72
2022/04/05 13:02:15;;;;;;;20.80;9.82;;;;;;;10.36;64.31;99809.50;5033638;28;20013;-72
2022/04/05 13:04:41;;;;;;;15.90;9.02;;;;;;;10.35;64.30;99798.03;5035045;28;20116;-71
2022/04/05 13:07:07;;;;;;;18.40;8.32;;;;;;;10.24;64.27;99801.16;5035305;28;20065;-72
2022/04/05 13:09:36;;;;;;;19.02;9.32;;;;;;;10.20;63.99;99807.81;5035081;28;20030;-73
2022/04/05 13:12:16;;;;;;;19.73;9.88;;;;;;;10.14;64.27;99809.34;5037856;28;20029;-73
2022/04/05 13:14:43;;;;;;;16.75;9.40;;;;;;;10.06;64.29;99791.63;5041539;28;20083;-72
2022/04/05 13:17:09;;;;;;;15.98;9.13;;;;;;;10.13;65.58;99799.72;5044145;28;20087;-73
2022/04/05 13:19:35;;;;;;;17.42;8.75;;;;;;;10.15;64.52;99792.38;5045337;28;20125;-72
2022/04/05 13:22:10;;;;;;;15.48;9.00;;;;;;;10.23;63.68;99791.50;5043121;28;20395;-73
2022/04/05 13:24:44;;;;;;;15.27;8.75;;;;;;;10.08;64.13;99788.78;5042880;28;20037;-72
2022/04/05 13:27:12;;;;;;;16.88;8.93;;;;;;;10.17;65.53;99797.50;5042123;28;20037;-73
2022/04/05 13:29:43;;;;;;;16.17;8.75;;;;;;;10.28;66.36;99791.78;5045012;28;20051;-72
2022/04/05 13:32:23;;;;;;;15.13;9.00;;;;;;;10.34;66.80;99793.72;5043870;28;20029;-72
2022/04/05 13:34:49;;;;;;;15.63;8.30;;;;;;;10.38;64.82;99783.53;5024290;28;20030;-73
2022/04/05 13:37:18;;;;;;;15.07;9.27;;;;;;;10.44;65.36;99782.81;5043206;28;20191;-72
2022/04/05 13:39:54;;;;;;;18.00;9.60;;;;;;;10.48;65.33;99787.56;5044627;28;20394;-73
2022/04/05 13:42:20;;;;;;;19.23;9.23;;;;;;;10.49;64.80;99780.41;5038866;28;20112;-73
2022/04/05 13:44:46;;;;;;;13.35;9.23;;;;;;;10.70;64.81;99793.00;5042437;28;20120;-72
2022/04/05 13:47:12;;;;;;;16.45;8.77;;;;;;;10.71;63.72;99773.34;5044314;28;20025;-73
2022/04/05 13:49:38;;;;;;;16.63;8.50;;;;;;;10.73;63.57;99780.13;5042866;28;20079;-72
2022/04/05 13:52:04;;;;;;;19.92;9.23;;;;;;;10.75;63.83;99767.44;5025870;28;20498;-72
2022/04/05 13:54:32;;;;;;;15.27;9.23;;;;;;;10.71;64.66;99770.66;5043488;28;20388;-72
2022/04/05 13:56:59;;;;;;;18.33;10.15;;;;;;;10.51;64.91;99763.25;5042925;28;20037;-73
2022/04/05 13:59:25;;;;;;;15.52;9.32;;;;;;;10.62;64.65;99761.09;5043114;28;20089;-73
2022/04/05 14:01:51;;;;;;;15.85;9.18;;;;;;;10.43;65.47;99760.69;5044645;28;20471;-73
2022/04/05 14:04:17;;;;;;;16.38;9.38;;;;;;;10.62;65.67;99761.09;5040528;28;20124;-74
2022/04/05 14:06:42;;;;;;;14.40;8.93;;;;;;;10.62;65.89;99775.25;5032913;28;20422;-73
2022/04/05 14:09:08;;;;;;;16.45;10.20;;;;;;;10.64;65.43;99759.94;5033922;28;20049;-73
2022/04/05 14:11:34;;;;;;;18.17;9.15;;;;;;;10.62;64.43;99758.44;5033553;28;20046;-73
2022/04/05 14:14:00;;;;;;;20.52;9.88;;;;;;;10.53;62.87;99755.06;5033619;28;20510;-74
2022/04/05 14:16:27;;;;;;;17.98;9.68;;;;;;;10.46;63.32;99752.31;5032897;28;20083;-73
2022/04/05 14:18:53;;;;;;;16.40;9.90;;;;;;;10.46;64.56;99739.00;5044061;28;20039;-73
2022/04/05 14:21:20;;;;;;;19.42;9.07;;;;;;;10.50;63.76;99750.94;5041531;28;20043;-73
2022/04/05 14:23:46;;;;;;;17.65;9.48;;;;;;;10.55;64.38;99745.03;5042717;28;20037;-72
2022/04/05 14:26:12;;;;;;;16.90;9.82;;;;;;;10.69;64.33;99738.03;5042608;28;20033;-73
2022/04/05 14:28:40;;;;;;;17.05;8.98;;;;;;;10.73;65.21;99740.16;5033410;28;20029;-72
2022/04/05 14:31:06;;;;;;;;;;;;;;;10.79;65.07;99752.72;5034234;28;20087;-73
2022/04/05 14:33:32;;;;;;;18.23;9.95;;;;;;;10.70;65.32;99745.03;5031981;28;19913;-72
2022/04/05 14:35:58;;;;;;;19.17;10.15;;;;;;;10.70;65.83;99739.72;5032071;28;20072;-73
2022/04/05 14:38:23;;;;;;;13.98;9.15;;;;;;;10.62;67.79;99747.78;5033342;28;20060;-72
2022/04/05 14:40:49;;;;;;;20.38;9.65;;;;;;;10.55;69.55;99739.72;5032486;28;20041;-72
2022/04/05 14:43:15;;;;;;;17.67;8.55;;;;;;;10.70;69.53;99737.06;5031784;28;20080;-72
2022/04/05 14:45:41;;;;;;;18.73;8.50;;;;;;;10.77;69.30;99737.97;5033046;28;20036;-72
2022/04/05 14:48:06;;;;;;;21.00;9.52;;;;;;;10.67;70.22;99740.06;5033128;28;20033;-72
2022/04/05 14:50:33;;;;;;;16.48;8.32;;;;;;;10.70;69.86;99734.38;5033302;28;20068;-72
2022/04/05 14:52:59;;;;;;;14.85;8.75;;;;;;;10.63;70.39;99739.63;5032891;28;20048;-72
2022/04/05 14:55:26;;;;;;;16.30;8.68;;;;;;;10.55;70.21;99729.88;5033211;28;20647;-72
2022/04/05 14:57:52;;;;;;;16.50;9.27;;;;;;;10.65;70.55;99726.13;5032883;28;20033;-71
2022/04/05 15:00:18;;;;;;;16.00;9.13;;;;;;;10.72;70.92;99727.84;5033102;28;20052;-72
2022/04/05 15:02:45;;;;;;;18.95;8.60;;;;;;;10.55;69.02;99721.91;5031313;28;20037;-72
2022/04/05 15:05:13;;;;;;;18.98;8.82;;;;;;;10.59;69.66;99712.53;5031824;28;20110;-72
2022/04/05 15:07:39;;;;;;;;;;;;;;;10.64;69.75;99719.97;5033091;28;20108;-72
2022/04/05 15:10:06;;;;;;;14.93;9.32;;;;;;;10.57;69.74;99703.91;5032511;28;20448;-72
2022/04/05 15:12:32;;;;;;;13.93;8.57;;;;;;;10.83;69.22;99713.22;5030908;28;20045;-72
2022/04/05 15:14:58;;;;;;;15.65;9.25;;;;;;;10.83;68.69;99714.06;5032323;28;20547;-72
2022/04/05 15:17:23;;;;;;;18.67;9.60;;;;;;;10.69;68.33;99704.25;5031042;28;20044;-72
2022/04/05 15:19:51;;;;;;;18.23;8.73;;;;;;;10.75;67.90;99710.66;5032414;28;20033;-72
2022/04/05 15:22:17;;;;;;;15.73;9.77;;;;;;;10.77;66.92;99711.31;5032118;28;20501;-73
2022/04/05 15:24:42;;;;;;;15.95;9.70;;;;;;;10.66;67.61;99712.63;5031088;28;20033;-72
2022/04/05 15:27:08;;;;;;;16.52;8.50;;;;;;;10.71;68.47;99704.06;5032288;28;20040;-73
2022/04/05 15:29:39;;;;;;;18.25;9.07;;;;;;;10.68;68.26;99702.59;5030980;28;20048;-72
2022/04/05 15:32:09;;;;;;;15.18;8.88;;;;;;;10.68;67.89;99707.09;5031788;28;20517;-72
2022/04/05 15:34:35;;;;;;;14.20;8.13;;;;;;;10.73;68.22;99702.03;5030677;28;20040;-72
2022/04/05 15:37:00;;;;;;;15.35;8.90;;;;;;;10.71;67.83;99698.75;5031055;28;20063;-72
2022/04/05 15:39:26;;;;;;;17.50;8.32;;;;;;;10.79;67.96;99691.47;5030729;28;20418;-73
2022/04/05 15:41:52;;;;;;;15.23;8.68;;;;;;;10.85;67.97;99692.56;5033726;28;20029;-73
2022/04/05 15:44:19;;;;;;;14.93;8.02;;;;;;;10.94;67.71;99686.06;5042872;28;20044;-72
2022/04/05 15:46:45;;;;;;;16.30;8.55;;;;;;;11.04;67.74;99691.94;5041043;28;20036;-72
2022/04/05 15:49:11;;;;;;;12.25;8.40;;;;;;;11.10;67.08;99693.84;5041187;28;20029;-72
2022/04/05 15:51:37;;;;;;;14.20;8.05;;;;;;;11.09;67.50;99700.19;5042069;28;20138;-72
2022/04/05 15:54:02;;;;;;;15.70;8.18;;;;;;;11.16;67.66;99712.75;5037738;28;20062;-71
2022/04/05 15:56:28;;;;;;;13.93;8.30;;;;;;;11.02;68.72;99715.28;5043203;28;20055;-72
2022/04/05 15:58:54;;;;;;;16.48;8.77;;;;;;;10.91;68.55;99715.78;5040999;28;20060;-71